createdAt,value
2018-07-03T00:02:27.722Z,55.12
2018-07-03T00:05:02.055Z,54.21
2018-07-03T00:07:42.536Z,54.83
2018-07-03T00:10:20.461Z,55.25
2018-07-03T00:12:54.496Z,54.87
2018-07-03T00:15:31.498Z,54.78
2018-07-03T00:18:05.820Z,55.71
2018-07-03T00:20:44.044Z,55.55
2018-07-03T00:23:18.098Z,55.30
2018-07-03T00:25:52.666Z,54.51
2018-07-03T00:28:26.667Z,53.61
2018-07-03T00:31:10.016Z,54.27
2018-07-03T00:36:49.336Z,56.00
2018-07-03T00:39:19.919Z,55.76
2018-07-03T00:41:51.286Z,56.43
2018-07-03T00:44:21.965Z,56.79
2018-07-03T00:46:52.011Z,56.27
2018-07-03T00:49:21.958Z,56.20
2018-07-03T00:51:51.906Z,56.62
2018-07-03T00:54:22.100Z,56.01
2018-07-03T00:56:52.312Z,56.71
2018-07-03T00:59:22.244Z,57.29
2018-07-03T01:01:52.245Z,57.46
2018-07-03T01:04:22.588Z,57.07
2018-07-03T01:06:52.419Z,56.70
2018-07-03T01:09:22.565Z,56.89
2018-07-03T01:11:53.428Z,57.70
2018-07-03T01:14:23.787Z,57.03
2018-07-03T01:16:54.367Z,56.17
2018-07-03T01:19:24.224Z,55.99
2018-07-03T01:21:54.315Z,55.62
2018-07-03T01:24:24.074Z,55.22
2018-07-03T01:26:53.971Z,54.71
2018-07-03T01:29:23.912Z,54.91
2018-07-03T01:31:54.545Z,56.00
2018-07-03T01:34:24.320Z,55.51
2018-07-03T01:36:54.998Z,55.93
2018-07-03T01:39:25.479Z,55.42
2018-07-03T01:41:56.264Z,55.75
2018-07-03T01:44:26.711Z,56.26
2018-07-03T01:46:57.261Z,56.14
2018-07-03T01:49:28.960Z,56.17
2018-07-03T01:51:59.767Z,56.08
2018-07-03T01:54:29.769Z,56.58
2018-07-03T01:57:00.018Z,56.28
2018-07-03T02:04:41.849Z,56.16
2018-07-03T02:07:11.827Z,55.54
2018-07-03T02:09:41.991Z,55.42
2018-07-03T02:12:12.066Z,55.89
2018-07-03T02:17:19.051Z,55.70
2018-07-03T02:19:49.030Z,57.11
2018-07-03T02:22:19.273Z,56.59
2018-07-03T02:24:49.283Z,57.26
2018-07-03T02:27:22.759Z,57.34
2018-07-03T02:29:53.353Z,56.35
2018-07-03T02:32:23.311Z,57.13
2018-07-03T02:34:53.512Z,57.80
2018-07-03T02:37:24.127Z,56.63
2018-07-03T02:39:55.594Z,57.24
2018-07-03T02:42:29.643Z,56.48
2018-07-03T02:44:59.255Z,56.62
2018-07-03T02:47:29.775Z,56.57
2018-07-03T02:50:00.657Z,56.58
2018-07-03T02:52:30.950Z,57.37
2018-07-03T02:55:00.996Z,56.55
2018-07-03T02:57:31.143Z,56.82
2018-07-03T03:00:01.614Z,56.92
2018-07-03T03:02:31.800Z,57.08
2018-07-03T03:05:02.257Z,56.63
2018-07-03T03:07:32.550Z,56.91
2018-07-03T03:10:02.745Z,57.60
2018-07-03T03:12:33.385Z,56.92
2018-07-03T03:15:04.317Z,56.94
2018-07-03T03:17:34.464Z,57.54
2018-07-03T03:20:04.670Z,57.54
2018-07-03T03:22:53.637Z,57.55
2018-07-03T03:25:32.599Z,56.90
2018-07-03T03:28:23.815Z,57.04
2018-07-03T03:31:04.509Z,57.61
2018-07-03T03:33:44.930Z,57.83
2018-07-03T03:36:24.926Z,57.38
2018-07-03T03:39:11.482Z,57.56
2018-07-03T03:41:47.028Z,57.90
2018-07-03T03:44:26.463Z,58.00
2018-07-03T03:46:59.794Z,58.04
2018-07-03T03:49:33.254Z,57.60
2018-07-03T03:52:13.835Z,57.96
2018-07-03T03:54:50.509Z,56.85
2018-07-03T04:00:18.362Z,57.76
2018-07-03T04:02:54.504Z,57.34
2018-07-03T04:05:32.662Z,57.17
2018-07-03T04:08:10.800Z,57.39
2018-07-03T04:10:45.459Z,57.37
2018-07-03T04:13:22.242Z,57.75
2018-07-03T04:15:58.800Z,57.79
2018-07-03T04:18:37.395Z,57.72
2018-07-03T04:26:42.399Z,57.44
2018-07-03T04:29:25.151Z,57.29
2018-07-03T04:32:09.630Z,57.42
2018-07-03T04:34:49.559Z,57.59
2018-07-03T04:37:22.976Z,56.58
2018-07-03T04:40:05.158Z,57.73
2018-07-03T04:42:50.347Z,57.67
2018-07-03T04:45:32.848Z,57.19
2018-07-03T04:48:08.863Z,57.16
2018-07-03T04:50:54.291Z,57.56
2018-07-03T04:53:29.885Z,57.40
2018-07-03T04:56:07.286Z,56.04
2018-07-03T04:58:47.250Z,56.47
2018-07-03T05:01:28.308Z,56.90
2018-07-03T05:04:04.661Z,57.06
2018-07-03T05:06:42.935Z,55.88
2018-07-03T05:09:20.696Z,56.02
2018-07-03T05:11:56.341Z,55.76
2018-07-03T05:14:30.795Z,54.65
2018-07-03T05:17:14.370Z,54.95
2018-07-03T05:19:54.407Z,55.18
2018-07-03T05:22:30.528Z,54.70
2018-07-03T05:25:09.388Z,55.13
2018-07-03T05:27:47.404Z,55.74
2018-07-03T05:30:24.983Z,55.35
2018-07-03T05:33:02.699Z,54.87
2018-07-03T05:35:54.569Z,55.53
2018-07-03T05:38:41.985Z,54.46
2018-07-03T05:44:03.936Z,54.70
2018-07-03T05:46:42.261Z,53.46
2018-07-03T05:52:04.492Z,53.28
2018-07-03T05:54:42.201Z,54.07
2018-07-03T05:57:24.996Z,54.39
2018-07-03T06:00:03.420Z,53.55
2018-07-03T06:05:33.159Z,54.11
2018-07-03T06:08:11.915Z,53.43
2018-07-03T06:10:52.526Z,53.36
2018-07-03T06:13:30.863Z,52.53
2018-07-03T06:16:14.699Z,54.10
2018-07-03T06:18:59.011Z,52.89
2018-07-03T06:21:36.933Z,52.19
2018-07-03T06:24:17.137Z,52.30
2018-07-03T06:26:52.983Z,50.99
2018-07-03T06:29:32.232Z,50.71
2018-07-03T06:32:08.105Z,50.61
2018-07-03T06:34:44.951Z,51.50
2018-07-03T06:37:25.790Z,50.61
2018-07-03T06:40:06.789Z,50.08
2018-07-03T06:42:45.142Z,49.11
2018-07-03T06:45:23.121Z,50.26
2018-07-03T06:50:46.678Z,50.02
2018-07-03T06:53:31.304Z,49.02
2018-07-03T06:56:11.828Z,49.77
2018-07-03T06:58:53.792Z,50.68
2018-07-03T07:01:43.224Z,50.19
2018-07-03T07:04:27.537Z,49.17
2018-07-03T07:07:06.309Z,49.53
2018-07-03T07:09:49.926Z,49.98
2018-07-03T07:12:31.145Z,49.30
2018-07-03T07:15:13.361Z,49.44
2018-07-03T07:17:51.817Z,48.53
2018-07-03T07:20:35.662Z,49.19
2018-07-03T07:23:12.206Z,47.19
2018-07-03T07:25:58.906Z,46.91
2018-07-03T07:31:30.508Z,47.15
2018-07-03T07:34:09.205Z,47.89
2018-07-03T07:36:44.880Z,47.92
2018-07-03T07:39:23.899Z,47.89
2018-07-03T07:42:05.570Z,45.69
2018-07-03T07:44:42.266Z,44.39
2018-07-03T07:47:21.831Z,43.64
2018-07-03T07:50:04.047Z,44.58
2018-07-03T07:52:43.179Z,44.07
2018-07-03T07:55:20.120Z,44.59
2018-07-03T07:57:58.143Z,43.79
2018-07-03T08:00:34.953Z,45.05
2018-07-03T08:03:11.995Z,44.57
2018-07-03T08:05:53.805Z,42.89
2018-07-03T08:08:34.104Z,40.12
2018-07-03T08:11:16.981Z,43.05
2018-07-03T08:13:53.891Z,44.61
2018-07-03T08:16:32.077Z,44.25
2018-07-03T08:19:12.438Z,42.51
2018-07-03T08:21:50.076Z,43.14
2018-07-03T08:24:27.888Z,42.30
2018-07-03T08:27:09.769Z,41.97
2018-07-03T08:29:53.033Z,44.32
2018-07-03T08:32:36.687Z,44.49
2018-07-03T08:37:57.179Z,41.82
2018-07-03T08:40:32.015Z,42.79
2018-07-03T08:43:10.645Z,42.36
2018-07-03T08:45:48.041Z,43.68
2018-07-03T08:48:32.014Z,42.50
2018-07-03T08:51:11.243Z,43.02
2018-07-03T08:53:52.712Z,40.83
2018-07-03T08:56:31.166Z,41.56
2018-07-03T08:59:07.118Z,39.96
2018-07-03T09:04:20.337Z,40.09
2018-07-03T09:06:59.986Z,38.85
2018-07-03T09:09:42.917Z,39.52
2018-07-03T09:12:21.111Z,38.81
2018-07-03T09:17:47.218Z,38.28
2018-07-03T09:20:28.934Z,39.01
2018-07-03T09:23:09.607Z,40.58
2018-07-03T09:25:46.653Z,42.46
2018-07-03T09:28:22.568Z,41.08
2018-07-03T09:30:59.054Z,42.01
2018-07-03T09:33:35.488Z,42.37
2018-07-03T09:36:14.002Z,43.50
2018-07-03T09:38:50.981Z,40.58
2018-07-03T09:41:28.385Z,40.63
2018-07-03T09:44:10.985Z,42.47
2018-07-03T09:46:50.871Z,41.55
2018-07-03T09:49:31.209Z,41.97
2018-07-03T09:52:08.822Z,42.00
2018-07-03T09:54:45.425Z,42.37
2018-07-03T09:57:29.753Z,42.14
2018-07-03T10:00:05.530Z,42.73
2018-07-03T10:02:44.690Z,43.39
2018-07-03T10:05:22.454Z,42.85
2018-07-03T10:07:59.129Z,42.53
2018-07-03T10:10:35.937Z,43.74
2018-07-03T10:13:14.399Z,43.17
2018-07-03T10:15:53.347Z,42.95
2018-07-03T10:18:32.517Z,41.30
2018-07-03T10:21:09.014Z,41.18
2018-07-03T10:23:45.392Z,42.63
2018-07-03T10:26:21.572Z,41.92
2018-07-03T10:29:03.624Z,41.04
2018-07-03T10:31:43.903Z,41.68
2018-07-03T10:37:15.819Z,42.57
2018-07-03T10:40:00.277Z,39.81
2018-07-03T10:42:41.766Z,39.53
2018-07-03T10:45:18.714Z,38.98
2018-07-03T10:50:38.917Z,40.11
2018-07-03T10:53:20.171Z,41.39
2018-07-03T10:55:55.002Z,41.02
2018-07-03T10:58:34.083Z,41.43
2018-07-03T11:01:10.952Z,41.50
2018-07-03T11:03:46.747Z,39.54
2018-07-03T11:06:29.305Z,40.84
2018-07-03T11:09:05.816Z,42.26
2018-07-03T11:11:40.222Z,41.40
2018-07-03T11:14:21.797Z,40.52
2018-07-03T11:17:00.100Z,41.40
2018-07-03T11:19:40.407Z,40.90
2018-07-03T11:22:18.386Z,41.98
2018-07-03T11:24:54.897Z,40.55
2018-07-03T11:27:36.287Z,41.98
2018-07-03T11:30:19.017Z,42.19
2018-07-03T11:32:54.451Z,42.05
2018-07-03T11:35:28.548Z,41.94
2018-07-03T11:38:11.711Z,40.26
2018-07-03T11:40:49.337Z,40.43
2018-07-03T11:43:29.958Z,40.51
2018-07-03T11:46:11.502Z,39.84
2018-07-03T11:48:50.557Z,40.28
2018-07-03T11:51:28.302Z,39.74
2018-07-03T11:54:09.160Z,39.85
2018-07-03T11:56:45.068Z,40.84
2018-07-03T11:59:26.358Z,40.67
2018-07-03T12:02:09.473Z,38.49
2018-07-03T12:04:54.964Z,38.20
2018-07-03T12:07:32.757Z,39.01
2018-07-03T12:10:19.525Z,38.91
2018-07-03T12:12:59.081Z,39.08
2018-07-03T12:15:37.358Z,38.45
2018-07-03T12:18:21.425Z,38.33
2018-07-03T12:20:55.750Z,38.14
2018-07-03T12:23:39.966Z,38.47
2018-07-03T12:26:17.734Z,37.70
2018-07-03T12:28:59.175Z,39.66
2018-07-03T12:31:34.418Z,37.84
2018-07-03T12:34:09.310Z,38.36
2018-07-03T12:36:49.697Z,38.65
2018-07-03T12:39:35.211Z,37.36
2018-07-03T12:42:14.076Z,38.74
2018-07-03T12:44:49.977Z,37.79
2018-07-03T12:47:25.743Z,38.61
2018-07-03T12:52:44.152Z,37.42
2018-07-03T12:55:18.450Z,39.05
2018-07-03T12:57:53.926Z,38.55
2018-07-03T13:00:37.295Z,38.25
2018-07-03T13:03:16.501Z,38.92
2018-07-03T13:05:55.434Z,37.04
2018-07-03T13:08:33.895Z,40.25
2018-07-03T13:11:16.516Z,38.90
2018-07-03T13:13:54.323Z,39.00
2018-07-03T13:16:31.281Z,37.28
2018-07-03T13:19:14.689Z,38.63
2018-07-03T13:21:56.528Z,38.52
2018-07-03T13:24:32.066Z,40.64
2018-07-03T13:27:09.354Z,39.61
2018-07-03T13:32:32.442Z,36.77
2018-07-03T13:35:18.287Z,36.05
2018-07-03T13:38:03.889Z,35.20
2018-07-03T13:40:39.983Z,36.93
2018-07-03T13:43:18.866Z,35.08
2018-07-03T13:46:01.990Z,38.11
2018-07-03T13:48:40.932Z,35.50
2018-07-03T13:51:23.916Z,36.16
2018-07-03T13:54:00.040Z,34.80
2018-07-03T13:56:32.569Z,35.21
2018-07-03T13:59:10.333Z,35.97
2018-07-03T14:01:52.167Z,38.67
2018-07-03T14:04:26.984Z,37.21
2018-07-03T14:09:47.269Z,38.44
2018-07-03T14:12:27.114Z,37.32
2018-07-03T14:15:08.228Z,36.13
2018-07-03T14:17:47.558Z,36.37
2018-07-03T14:20:28.956Z,35.95
2018-07-03T14:23:07.250Z,35.80
2018-07-03T14:25:44.480Z,35.37
2018-07-03T14:28:24.128Z,36.46
2018-07-03T14:31:00.837Z,37.19
2018-07-03T14:33:42.628Z,36.40
2018-07-03T14:36:17.061Z,35.04
2018-07-03T14:38:53.875Z,36.11
2018-07-03T14:41:33.940Z,35.97
2018-07-03T14:44:09.292Z,36.58
2018-07-03T14:46:47.795Z,37.19
2018-07-03T14:49:28.142Z,37.02
2018-07-03T14:52:04.122Z,38.25
2018-07-03T14:54:44.142Z,38.53
2018-07-03T14:57:25.146Z,37.86
2018-07-03T15:00:00.604Z,36.47
2018-07-03T15:02:39.804Z,37.59
2018-07-03T15:05:16.273Z,39.43
2018-07-03T15:07:58.811Z,37.39
2018-07-03T15:10:38.553Z,39.21
2018-07-03T15:13:16.703Z,38.13
2018-07-03T15:15:52.005Z,37.01
2018-07-03T15:18:31.434Z,37.46
2018-07-03T15:21:10.784Z,36.93
2018-07-03T15:23:53.602Z,36.24
2018-07-03T15:26:38.630Z,35.63
2018-07-03T15:29:18.483Z,37.10
2018-07-03T15:32:05.020Z,38.85
2018-07-03T15:34:42.508Z,37.29
2018-07-03T15:37:25.432Z,36.89
2018-07-03T15:40:05.104Z,38.38
2018-07-03T15:42:44.021Z,39.39
2018-07-03T15:45:31.758Z,39.15
2018-07-03T15:48:12.134Z,39.73
2018-07-03T15:50:50.463Z,39.00
2018-07-03T15:56:09.460Z,38.60
2018-07-03T15:58:46.292Z,37.26
2018-07-03T16:06:20.616Z,38.98
2018-07-03T16:09:07.415Z,41.40
2018-07-03T16:11:47.476Z,41.62
2018-07-03T16:14:30.175Z,42.57
2018-07-03T16:17:08.018Z,40.61
2018-07-03T16:19:57.287Z,39.75
2018-07-03T16:22:39.877Z,40.09
2018-07-03T16:25:18.823Z,40.51
2018-07-03T16:28:00.753Z,40.85
2018-07-03T16:30:38.920Z,42.15
2018-07-03T16:33:21.544Z,42.29
2018-07-03T16:35:59.189Z,42.32
2018-07-03T16:38:34.769Z,42.69
2018-07-03T16:41:12.579Z,43.10
2018-07-03T16:43:49.122Z,42.46
2018-07-03T16:46:30.368Z,41.38
2018-07-03T16:49:08.683Z,41.94
2018-07-03T16:51:43.895Z,41.84
2018-07-03T16:54:22.626Z,41.09
2018-07-03T16:57:05.412Z,40.50
2018-07-03T17:02:18.587Z,40.43
2018-07-03T17:04:58.692Z,41.36
2018-07-03T17:07:39.315Z,40.24
2018-07-03T17:10:19.652Z,42.07
2018-07-03T17:13:06.800Z,42.46
2018-07-03T17:15:48.571Z,43.48
2018-07-03T17:18:26.149Z,44.12
2018-07-03T17:21:04.228Z,44.86
2018-07-03T17:23:48.907Z,44.58
2018-07-03T17:26:26.359Z,44.28
2018-07-03T17:29:08.645Z,45.88
2018-07-03T17:31:56.977Z,45.92
2018-07-03T17:34:45.555Z,45.85
2018-07-03T17:37:37.715Z,47.07
2018-07-03T17:40:29.804Z,46.18
2018-07-03T17:43:36.293Z,46.64
2018-07-03T17:46:27.087Z,46.43
2018-07-03T17:49:07.740Z,46.04
2018-07-03T17:51:52.752Z,46.75
2018-07-03T17:54:43.994Z,46.58
2018-07-03T17:57:37.875Z,47.16
2018-07-03T18:03:18.851Z,48.58
2018-07-03T18:06:07.188Z,47.55
2018-07-03T18:08:48.214Z,48.78
2018-07-03T18:11:35.283Z,48.52
2018-07-03T18:14:20.870Z,48.75
2018-07-03T18:17:09.420Z,48.80
2018-07-03T18:22:49.736Z,49.12
2018-07-03T18:28:28.696Z,49.44
2018-07-03T18:31:17.722Z,50.40
2018-07-03T18:33:59.723Z,51.47
2018-07-03T18:36:45.497Z,51.58
2018-07-03T18:39:36.224Z,50.70
2018-07-03T18:42:26.907Z,51.32
2018-07-03T18:45:09.191Z,50.73
2018-07-03T18:47:52.845Z,50.78
2018-07-03T18:53:33.247Z,51.43
2018-07-03T18:56:17.252Z,50.78
2018-07-03T18:59:05.343Z,51.01
2018-07-03T19:01:52.071Z,51.55
2018-07-03T19:04:38.827Z,51.97
2018-07-03T19:07:18.416Z,52.38
2018-07-03T19:10:03.595Z,53.10
2018-07-03T19:12:53.840Z,52.75
2018-07-03T19:15:44.798Z,52.18
2018-07-03T19:18:36.108Z,52.20
2018-07-03T19:21:21.761Z,53.58
2018-07-03T19:24:12.299Z,53.33
2018-07-03T19:26:59.287Z,52.27
2018-07-03T19:32:59.951Z,53.09
2018-07-03T19:35:58.694Z,53.88
2018-07-03T19:38:55.101Z,53.97
2018-07-03T19:41:43.752Z,53.95
2018-07-03T19:47:26.577Z,54.16
2018-07-03T19:50:20.576Z,55.06
2018-07-03T19:53:18.536Z,54.95
2018-07-03T19:56:10.772Z,54.73
2018-07-03T19:58:53.026Z,54.74
2018-07-03T20:01:49.397Z,54.51
2018-07-03T20:07:29.460Z,54.47
2018-07-03T20:10:19.730Z,53.94
2018-07-03T20:13:17.823Z,54.87
2018-07-03T20:16:03.719Z,54.04
2018-07-03T20:18:54.780Z,54.80
2018-07-03T20:21:46.860Z,54.30
2018-07-03T20:27:22.964Z,55.00
2018-07-03T20:30:15.919Z,54.91
2018-07-03T20:33:13.563Z,55.38
2018-07-03T20:36:08.788Z,55.51
2018-07-03T20:42:00.393Z,55.58
2018-07-03T20:47:49.303Z,55.90
2018-07-03T20:50:43.221Z,56.13
2018-07-03T20:53:46.721Z,55.66
2018-07-03T20:56:42.415Z,55.54
2018-07-03T21:02:29.757Z,57.31
2018-07-03T21:05:31.231Z,57.08
2018-07-03T21:08:27.446Z,57.33
2018-07-03T21:11:17.912Z,58.47
2018-07-03T21:17:05.768Z,57.33
2018-07-03T21:19:59.280Z,57.12
2018-07-03T21:28:44.584Z,57.72
2018-07-03T21:31:39.152Z,58.57
2018-07-03T21:34:30.589Z,58.20
2018-07-03T21:37:23.646Z,60.28
2018-07-03T21:40:18.640Z,59.50
2018-07-03T21:43:12.980Z,59.89
2018-07-03T21:51:55.453Z,59.28
2018-07-03T21:57:42.168Z,58.23
2018-07-03T22:00:47.348Z,58.01
2018-07-03T22:03:34.717Z,58.39
2018-07-03T22:06:28.276Z,57.87
2018-07-03T22:09:23.173Z,58.76
2018-07-03T22:12:20.937Z,58.36
2018-07-03T22:15:06.101Z,58.02
2018-07-03T22:18:02.464Z,58.83
2018-07-03T22:20:54.010Z,59.29
2018-07-03T22:23:54.564Z,59.27
2018-07-03T22:29:39.062Z,58.63
2018-07-03T22:35:31.225Z,58.66
2018-07-03T22:38:20.558Z,58.56
2018-07-03T22:41:13.669Z,58.24
2018-07-03T22:44:15.973Z,58.27
2018-07-03T22:47:15.943Z,58.82
2018-07-03T22:50:00.918Z,58.85
2018-07-03T22:52:54.594Z,59.55
2018-07-03T22:55:37.628Z,59.19
2018-07-03T22:58:24.611Z,58.25
2018-07-03T23:01:12.524Z,58.71
2018-07-03T23:03:58.774Z,59.20
2018-07-03T23:06:50.287Z,59.94
2018-07-03T23:09:39.309Z,59.60
2018-07-03T23:12:30.110Z,59.17
2018-07-03T23:15:18.197Z,59.15
2018-07-03T23:18:12.008Z,59.43
2018-07-03T23:23:52.939Z,58.81
2018-07-03T23:26:38.712Z,59.65
2018-07-03T23:29:26.155Z,59.59
2018-07-03T23:32:15.543Z,59.26
2018-07-03T23:35:06.116Z,60.02
2018-07-03T23:37:52.692Z,59.27
2018-07-03T23:40:36.336Z,59.02
2018-07-03T23:43:27.843Z,59.21
2018-07-03T23:46:06.830Z,59.64
2018-07-03T23:48:59.931Z,59.88
2018-07-03T23:51:55.057Z,59.83
2018-07-03T23:54:55.059Z,59.40
2018-07-03T23:57:49.875Z,60.04
